Imagination — C6FN2 — position and weather

sailwx.info

Track history (hours):
 
Tides and Currents Weather Stations Pressure Air Temp Water Temp Dewpoint Dewpoint Depression Visibility Wind Speed Wind Dir Waves Ship Positions

Imagination

Operator: Carnival Cruise Lines

Last reported at 2017-Apr-24 22:59 UTC. Time now 2017-Apr-24 23:06 UTC.
Position N 31°51' W 118°08'.

Type: Ship. MMSI: 309933000.

Date/timePositionNaut miles runAvg speedWind from/ knotsBaromVisibWave heightAir tempDewpointWater temp
2017-Apr-24 22:59N 31°51' W 118°08'4 7.3
2017-Apr-24 22:29N 31°47' W 118°10'4 7.8
2017-Apr-24 21:59N 31°44' W 118°12'4 7.1
2017-Apr-24 21:29N 31°40' W 118°11'5 6.9
2017-Apr-24 20:49N 31°37' W 118°07'3 6.5
2017-Apr-24 20:18N 31°36' W 118°03'4 7.3
2017-Apr-24 19:43N 31°37' W 117°59'3 7.2
2017-Apr-24 19:20N 31°38' W 117°55'2 7.3
2017-Apr-24 19:00N 31°38' W 117°53'4 7.1
2017-Apr-24 18:27N 31°39' W 117°48'3 7.5
2017-Apr-24 18:00N 31°41' W 117°45'4 7.7
2017-Apr-24 17:28N 31°45' W 117°42'1913.4
2017-Apr-24 16:04N 32°03' W 117°39'114.9
2017-Apr-24 16:00N 32°04' W 117°39'714.2
2017-Apr-24 15:31N 32°11' W 117°40'4 7.4
2017-Apr-24 15:00N 32°15' W 117°41'3 6.7
2017-Apr-24 14:31N 32°18' W 117°42'7 6.9
2017-Apr-24 13:30N 32°25' W 117°43'3 6.8
2017-Apr-24 13:01N 32°28' W 117°44'3 6.5
2017-Apr-24 12:30N 32°31' W 117°45'3 6.5
2017-Apr-24 12:00N 32°35' W 117°45'3 6.5
2017-Apr-24 11:31N 32°38' W 117°46'3 6.5
2017-Apr-24 11:01N 32°41' W 117°48'3 6.5
2017-Apr-24 10:30N 32°44' W 117°49'3 6.6
2017-Apr-24 10:01N 32°47' W 117°50'3 6.5
2017-Apr-24 09:30N 32°50' W 117°52'3 6.2
2017-Apr-24 09:01N 32°53' W 117°54'3 6.3
2017-Apr-24 08:30N 32°55' W 117°56'3 6.4
2017-Apr-24 08:01N 32°58' W 117°56'3 6.3
2017-Apr-24 07:30N 33°01' W 117°58'3 6.3
2017-Apr-24 07:00N 33°04' W 117°59'3 6.3
2017-Apr-24 06:30N 33°07' W 118°00'3 6.5
2017-Apr-24 06:01N 33°10' W 118°02'3 6.5
2017-Apr-24 05:30N 33°13' W 118°03'3 6.5
2017-Apr-24 05:00N 33°16' W 118°05'3 6.6
2017-Apr-24 04:30N 33°19' W 118°06'3 6.5
2017-Apr-24 04:01N 33°22' W 118°08'3 6.4
2017-Apr-24 03:30N 33°25' W 118°09'3 6.4
2017-Apr-24 03:00N 33°28' W 118°10'3 6.5
2017-Apr-24 02:30N 33°31' W 118°12'4 7.2
2017-Apr-24 02:00N 33°35' W 118°13'611.0
2017-Apr-24 01:30N 33°40' W 118°12'5 9.3
2017-Apr-24 01:00N 33°45' W 118°11'0 0.4
2017-Apr-24 00:28N 33°45' W 118°11'0 0.0
2017-Apr-23 23:58N 33°45' W 118°11'0 0.0
2017-Apr-23 23:19N 33°45' W 118°11'0 0.0
2017-Apr-23 22:58N 33°45' W 118°11'0 0.0
2017-Apr-23 22:30N 33°45' W 118°11'0 0.0
2017-Apr-23 21:57N 33°45' W 118°11'0 0.0
2017-Apr-23 21:30N 33°45' W 118°11'0 0.0
2017-Apr-23 20:54N 33°45' W 118°11'0 0.0
2017-Apr-23 20:30N 33°45' W 118°11'0 0.0
2017-Apr-23 19:59N 33°45' W 118°11'0 0.0
2017-Apr-23 19:29N 33°45' W 118°11'0 0.0
2017-Apr-23 18:56N 33°45' W 118°11'0 0.0
2017-Apr-23 18:29N 33°45' W 118°11'0 0.0
2017-Apr-23 17:59N 33°45' W 118°11'0 0.0
2017-Apr-23 17:28N 33°45' W 118°11'0 0.0
2017-Apr-23 16:58N 33°45' W 118°11'0 0.0
2017-Apr-23 16:28N 33°45' W 118°11'0 0.0
2017-Apr-23 15:55N 33°45' W 118°11'0 0.0
2017-Apr-23 15:30N 33°45' W 118°11'0 0.0
2017-Apr-23 15:00N 33°45' W 118°11'0 0.0
2017-Apr-23 14:00N 33°45' W 118°11'0 0.0
2017-Apr-23 13:30N 33°45' W 118°11'0 0.0
2017-Apr-23 12:56N 33°45' W 118°11'0 0.6
2017-Apr-23 12:30N 33°45' W 118°11'3 6.7
2017-Apr-23 12:00N 33°42' W 118°11'510.8
2017-Apr-23 11:30N 33°36' W 118°10'611.5
2017-Apr-23 11:00N 33°31' W 118°08'611.6
2017-Apr-23 10:30N 33°25' W 118°05'611.8
2017-Apr-23 10:01N 33°20' W 118°03'714.3
2017-Apr-23 09:30N 33°13' W 117°59'815.0
2017-Apr-23 09:00N 33°07' W 117°55'715.0
2017-Apr-23 08:30N 32°59' W 117°52'714.9
2017-Apr-23 08:00N 32°52' W 117°50'815.2
2017-Apr-23 07:31N 32°45' W 117°48'815.1
2017-Apr-23 07:00N 32°38' W 117°46'714.8
2017-Apr-23 06:30N 32°31' W 117°42'714.9
2017-Apr-23 06:00N 32°24' W 117°39'714.7
2017-Apr-23 05:30N 32°18' W 117°34'714.9
2017-Apr-23 05:00N 32°12' W 117°28'814.9
2017-Apr-23 04:30N 32°08' W 117°21'714.9
2017-Apr-23 04:00N 32°03' W 117°14'714.8
2017-Apr-23 03:30N 31°59' W 117°07'814.8
2017-Apr-23 03:00N 31°56' W 116°58'18 1.4
2017-Apr-22 13:56N 31°50' W 116°39'3 7.8
2017-Apr-22 13:30N 31°50' W 116°43'11 6.3
2017-Apr-22 11:45N 31°52' W 116°55'2 6.8
2017-Apr-22 11:30N 31°52' W 116°57'3 6.7
2017-Apr-22 11:00N 31°51' W 117°01'3 6.7
2017-Apr-22 10:30N 31°50' W 117°05'3 6.7
2017-Apr-22 10:00N 31°50' W 117°09'3 6.7
2017-Apr-22 09:30N 31°49' W 117°13'3 6.6
2017-Apr-22 09:00N 31°48' W 117°17'3 6.4
2017-Apr-22 08:30N 31°48' W 117°20'3 6.6
2017-Apr-22 08:00N 31°47' W 117°24'3 7.0
2017-Apr-22 07:30N 31°46' W 117°28'3 6.9
2017-Apr-22 07:00N 31°45' W 117°32'3 6.8
2017-Apr-22 06:30N 31°43' W 117°35'3 6.7
2017-Apr-22 06:00N 31°42' W 117°39'3 6.7
2017-Apr-22 05:29N 31°41' W 117°43'3 6.8
2017-Apr-22 05:00N 31°40' W 117°47'3 6.3
2017-Apr-22 04:30N 31°38' W 117°49'3 6.8
2017-Apr-22 04:00N 31°35' W 117°50'3 6.8
2017-Apr-22 03:30N 31°31' W 117°50'3 6.9
2017-Apr-22 03:00N 31°28' W 117°51'3 6.9
2017-Apr-22 02:30N 31°25' W 117°52'3 6.9
2017-Apr-22 02:00N 31°21' W 117°53'3 6.1
2017-Apr-22 01:30N 31°20' W 117°57'3 6.6
2017-Apr-22 01:00N 31°20' W 118°00'3 6.6
2017-Apr-22 00:30N 31°20' W 118°04'3 6.6
2017-Apr-22 00:00N 31°21' W 118°08'3 6.5
2017-Apr-21 23:30N 31°21' W 118°12'3 6.7
2017-Apr-21 23:00N 31°22' W 118°16'4 7.2
2017-Apr-21 22:30N 31°26' W 118°16'4 7.1
2017-Apr-21 22:00N 31°29' W 118°17'3 6.3
2017-Apr-21 21:30N 31°32' W 118°15'3 6.9
2017-Apr-21 21:00N 31°35' W 118°13'3 7.0
2017-Apr-21 20:30N 31°38' W 118°12'4 7.1
2017-Apr-21 20:00N 31°41' W 118°10'4 7.0
2017-Apr-21 19:30N 31°45' W 118°09'4 7.1
2017-Apr-21 19:00N 31°48' W 118°07'4 7.1
2017-Apr-21 18:30N 31°51' W 118°06'4 7.1
2017-Apr-21 18:00N 31°55' W 118°05'4 7.1
2017-Apr-21 17:30N 31°58' W 118°03'4 7.1
2017-Apr-21 17:00N 32°01' W 118°01'4 7.1
2017-Apr-21 16:30N 32°05' W 117°60'4 7.2
2017-Apr-21 16:00N 32°08' W 117°59'4 7.1
2017-Apr-21 15:30N 32°11' W 117°57'3 6.7
2017-Apr-21 15:00N 32°14' W 117°55'3 6.7
2017-Apr-21 14:30N 32°18' W 117°54'7 6.8
2017-Apr-21 13:30N 32°24' W 117°51'3 6.6
2017-Apr-21 13:00N 32°27' W 117°50'3 6.7
2017-Apr-21 12:30N 32°30' W 117°48'3 6.8
2017-Apr-21 12:00N 32°33' W 117°47'3 6.8
2017-Apr-21 11:30N 32°37' W 117°46'3 7.0
2017-Apr-21 11:00N 32°40' W 117°46'4 7.0
2017-Apr-21 10:30N 32°44' W 117°47'3 6.7
2017-Apr-21 10:00N 32°47' W 117°48'3 6.9
2017-Apr-21 09:30N 32°50' W 117°49'3 6.0
2017-Apr-21 09:00N 32°53' W 117°50'3 6.0
2017-Apr-21 08:30N 32°56' W 117°51'3 6.5
2017-Apr-21 08:00N 32°59' W 117°53'3 6.6
2017-Apr-21 07:30N 33°01' W 117°55'3 6.6
2017-Apr-21 07:00N 33°04' W 117°57'3 6.7
2017-Apr-21 06:30N 33°07' W 117°59'3 6.7
2017-Apr-21 06:00N 33°10' W 118°00'3 6.7
2017-Apr-21 05:30N 33°13' W 118°02'3 6.4
2017-Apr-21 05:00N 33°16' W 118°04'3 6.3
2017-Apr-21 04:30N 33°19' W 118°06'3 6.3
2017-Apr-21 04:00N 33°22' W 118°07'3 6.3
2017-Apr-21 03:30N 33°25' W 118°09'3 6.5
2017-Apr-21 03:00N 33°28' W 118°10'3 6.5
2017-Apr-21 02:30N 33°31' W 118°11'3 6.8
2017-Apr-21 02:00N 33°34' W 118°13'510.7
2017-Apr-21 01:30N 33°39' W 118°12'510.2
2017-Apr-21 01:00N 33°44' W 118°11'1 1.6
2017-Apr-21 00:30N 33°45' W 118°11'0 0.0
2017-Apr-21 00:00N 33°45' W 118°11'0 0.0
2017-Apr-20 23:30N 33°45' W 118°11'0 0.0
2017-Apr-20 22:59N 33°45' W 118°11'0 0.0
2017-Apr-20 22:29N 33°45' W 118°11'0 0.0
2017-Apr-20 21:59N 33°45' W 118°11'0 0.0
2017-Apr-20 21:29N 33°45' W 118°11'0 0.0
2017-Apr-20 20:59N 33°45' W 118°11'0 0.0
2017-Apr-20 20:25N 33°45' W 118°11'0 0.0
2017-Apr-20 19:58N 33°45' W 118°11'0 0.0
2017-Apr-20 19:28N 33°45' W 118°11'0 0.0
2017-Apr-20 18:58N 33°45' W 118°11'0 0.0
2017-Apr-20 18:30N 33°45' W 118°11'0 0.0
2017-Apr-20 18:00N 33°45' W 118°11'0 0.0
2017-Apr-20 17:30N 33°45' W 118°11'0 0.0
2017-Apr-20 17:00N 33°45' W 118°11'0 0.0
2017-Apr-20 16:30N 33°45' W 118°11'0 0.0
2017-Apr-20 15:35N 33°45' W 118°11'0 0.0
2017-Apr-20 15:29N 33°45' W 118°11'0 0.0
2017-Apr-20 14:59N 33°45' W 118°11'0 0.0
2017-Apr-20 13:58N 33°45' W 118°11'0 0.0
2017-Apr-20 13:28N 33°45' W 118°11'0 0.0
2017-Apr-20 12:50N 33°45' W 118°11'0 0.7
2017-Apr-20 12:26N 33°45' W 118°11'3 7.3
2017-Apr-20 12:00N 33°42' W 118°11'611.0
2017-Apr-20 11:30N 33°36' W 118°10'611.6
2017-Apr-20 11:00N 33°31' W 118°08'611.4
2017-Apr-20 10:30N 33°25' W 118°05'611.9
2017-Apr-20 10:00N 33°20' W 118°02'815.5
2017-Apr-20 09:30N 33°13' W 117°59'815.2
2017-Apr-20 09:00N 33°06' W 117°56'815.2
2017-Apr-20 08:30N 32°59' W 117°52'815.2
2017-Apr-20 08:01N 32°51' W 117°50'815.2
2017-Apr-20 07:30N 32°44' W 117°47'714.8
2017-Apr-20 07:00N 32°37' W 117°45'714.5
2017-Apr-20 06:30N 32°30' W 117°42'714.6
2017-Apr-20 06:00N 32°24' W 117°38'714.5
2017-Apr-20 05:30N 32°17' W 117°34'714.4
2017-Apr-20 05:00N 32°12' W 117°28'714.8
2017-Apr-20 04:30N 32°08' W 117°21'714.6
2017-Apr-20 04:00N 32°03' W 117°14'714.7
2017-Apr-20 03:30N 31°59' W 117°07'2214.2
2017-Apr-20 01:59N 31°50' W 116°44'31 1.9
2017-Apr-19 09:20N 32°04' W 117°17'3 8.1
2017-Apr-19 09:00N 32°05' W 117°19'4 8.2
2017-Apr-19 08:30N 32°08' W 117°23'4 7.9
2017-Apr-19 08:00N 32°11' W 117°27'4 8.1
2017-Apr-19 07:30N 32°13' W 117°30'4 7.9
2017-Apr-19 07:00N 32°16' W 117°33'4 8.2
2017-Apr-19 06:30N 32°20' W 117°36'4 8.2
2017-Apr-19 06:00N 32°23' W 117°38'510.0
2017-Apr-19 05:30N 32°27' W 117°41'611.1
2017-Apr-19 05:00N 32°32' W 117°44'611.0
2017-Apr-19 04:30N 32°37' W 117°48'510.8
2017-Apr-19 04:00N 32°42' W 117°51'511.0
2017-Apr-19 03:30N 32°47' W 117°54'511.0
2017-Apr-19 03:00N 32°52' W 117°57'510.9
2017-Apr-19 02:30N 32°56' W 118°00'511.0
2017-Apr-19 02:00N 33°01' W 118°03'611.1
2017-Apr-19 01:30N 33°06' W 118°06'511.0
2017-Apr-19 01:00N 33°11' W 118°09'510.9
2017-Apr-19 00:30N 33°16' W 118°12'510.1
2017-Apr-19 00:00N 33°19' W 118°17'3 5.4
2017-Apr-18 23:31N 33°21' W 118°19'0 0.1
2017-Apr-18 23:00N 33°21' W 118°19'0 0.1
2017-Apr-18 22:30N 33°21' W 118°19'0 0.1
2017-Apr-18 22:00N 33°21' W 118°19'0 0.0
2017-Apr-18 21:30N 33°21' W 118°19'0 0.0
2017-Apr-18 20:59N 33°21' W 118°19'0 0.0
2017-Apr-18 20:29N 33°21' W 118°19'0 0.0
2017-Apr-18 19:59N 33°21' W 118°19'0 0.0
2017-Apr-18 19:29N 33°21' W 118°19'0 0.0
2017-Apr-18 18:59N 33°21' W 118°19'0 0.0
2017-Apr-18 18:28N 33°21' W 118°19'0 0.0
2017-Apr-18 17:58N 33°21' W 118°19'0 0.0
2017-Apr-18 17:28N 33°21' W 118°19'0 0.0
2017-Apr-18 16:58N 33°21' W 118°19'0 0.1
2017-Apr-18 16:30N 33°21' W 118°19'0 0.0
2017-Apr-18 16:00N 33°21' W 118°19'0 0.0
2017-Apr-18 15:30N 33°21' W 118°19'0 0.0
2017-Apr-18 15:00N 33°21' W 118°19'0 0.1
2017-Apr-18 14:00N 33°21' W 118°19'3 6.3
2017-Apr-18 13:30N 33°18' W 118°17'3 6.7
2017-Apr-18 13:01N 33°15' W 118°17'3 6.7
2017-Apr-18 12:30N 33°12' W 118°17'3 6.9
2017-Apr-18 12:00N 33°08' W 118°17'4 7.0
2017-Apr-18 11:30N 33°05' W 118°16'3 6.6
2017-Apr-18 11:00N 33°02' W 118°13'3 6.6
2017-Apr-18 10:30N 33°00' W 118°10'3 6.5
2017-Apr-18 10:00N 32°58' W 118°07'3 6.5
2017-Apr-18 09:30N 32°56' W 118°04'3 6.4
2017-Apr-18 09:00N 32°54' W 118°02'3 6.3
2017-Apr-18 08:30N 32°51' W 117°60'3 6.6
2017-Apr-18 08:00N 32°48' W 117°58'4 8.4
2017-Apr-18 07:30N 32°44' W 117°56'4 8.8
2017-Apr-18 07:00N 32°40' W 117°53'4 7.2
2017-Apr-18 06:30N 32°37' W 117°51'3 6.7
2017-Apr-18 06:00N 32°34' W 117°51'3 6.9
2017-Apr-18 05:30N 32°30' W 117°52'4 7.1
2017-Apr-18 05:00N 32°27' W 117°53'4 7.1
2017-Apr-18 04:30N 32°24' W 117°55'4 7.3
2017-Apr-18 04:00N 32°20' W 117°56'4 7.1
2017-Apr-18 03:30N 32°17' W 117°57'4 7.3
2017-Apr-18 03:00N 32°13' W 117°58'4 7.2
2017-Apr-18 02:30N 32°10' W 117°59'3 7.0
2017-Apr-18 02:00N 32°06' W 118°01'4 7.1
2017-Apr-18 01:26N 32°03' W 118°02'3 6.8
2017-Apr-18 00:59N 31°60' W 118°03'3 6.7
2017-Apr-18 00:30N 31°57' W 118°04'4 7.0
2017-Apr-18 00:00N 31°53' W 118°06'4 7.1
2017-Apr-17 23:30N 31°50' W 118°08'4 7.0
2017-Apr-17 23:00N 31°47' W 118°10'4 7.0
2017-Apr-17 22:25N 31°43' W 118°12'3 6.8
2017-Apr-17 22:00N 31°41' W 118°12'3 6.9
2017-Apr-17 21:30N 31°37' W 118°12'3 6.5
2017-Apr-17 21:00N 31°35' W 118°09'3 6.8
2017-Apr-17 20:30N 31°35' W 118°05'4 7.0
2017-Apr-17 20:00N 31°36' W 118°01'4 7.1
2017-Apr-17 19:30N 31°37' W 117°57'3 7.0
2017-Apr-17 19:00N 31°38' W 117°53'3 7.0
2017-Apr-17 18:30N 31°39' W 117°49'3 7.0
2017-Apr-17 18:00N 31°41' W 117°46'4 7.1
2017-Apr-17 17:30N 31°43' W 117°43'4 7.6
2017-Apr-17 17:00N 31°46' W 117°40'713.9
2017-Apr-17 16:30N 31°53' W 117°37'815.7
2017-Apr-17 16:00N 32°01' W 117°39'815.3
2017-Apr-17 15:30N 32°08' W 117°40'611.4
2017-Apr-17 15:01N 32°14' W 117°41'5290.0
2017-Apr-17 15:00N 32°12' W 117°36'1110.7 340 / 101021.210.8 15.0 9.717.0
2017-Apr-17 14:00N 32°21' W 117°43'4 7.2
2017-Apr-17 13:30N 32°24' W 117°43'4 7.1
2017-Apr-17 13:01N 32°28' W 117°44'4 7.2
2017-Apr-17 12:30N 32°31' W 117°45'4 7.1
2017-Apr-17 12:00N 32°35' W 117°45'3 6.6
2017-Apr-17 11:30N 32°38' W 117°46'3 6.4
2017-Apr-17 11:00N 32°41' W 117°48'3 6.5
2017-Apr-17 10:30N 32°44' W 117°49'3 6.5
2017-Apr-17 10:00N 32°47' W 117°51'3 6.4
2017-Apr-17 09:30N 32°50' W 117°52'3 6.3
2017-Apr-17 09:00N 32°53' W 117°53'3 6.4
2017-Apr-17 08:30N 32°56' W 117°55'3 6.6
2017-Apr-17 08:00N 32°59' W 117°56'3 6.7
2017-Apr-17 07:30N 33°02' W 117°58'3 6.5
2017-Apr-17 07:00N 33°05' W 117°59'3 6.4
2017-Apr-17 06:30N 33°08' W 118°01'3 6.4
2017-Apr-17 06:00N 33°11' W 118°02'3 6.6
2017-Apr-17 05:30N 33°14' W 118°04'3 6.7
2017-Apr-17 05:00N 33°17' W 118°05'3 6.6
2017-Apr-17 04:30N 33°20' W 118°07'3 6.3
2017-Apr-17 04:00N 33°23' W 118°08'3 6.6
2017-Apr-17 03:30N 33°26' W 118°09'3 6.7
2017-Apr-17 03:00N 33°29' W 118°11'4 7.1
2017-Apr-17 02:30N 33°33' W 118°12'5 9.5
2017-Apr-17 02:00N 33°38' W 118°12'510.4
2017-Apr-17 01:30N 33°43' W 118°11'2 4.4
2017-Apr-17 00:58N 33°45' W 118°11'0 0.0
2017-Apr-17 00:28N 33°45' W 118°11'0 0.0
2017-Apr-16 23:58N 33°45' W 118°11'0 0.0
2017-Apr-16 23:30N 33°45' W 118°11'0 0.0
2017-Apr-16 23:00N 33°45' W 118°11'0 0.0
2017-Apr-16 22:30N 33°45' W 118°11'0 0.0
2017-Apr-16 22:00N 33°45' W 118°11'0 0.0
2017-Apr-16 21:30N 33°45' W 118°11'0 0.0
2017-Apr-16 20:56N 33°45' W 118°11'0 0.0
2017-Apr-16 20:26N 33°45' W 118°11'0 0.0
2017-Apr-16 19:59N 33°45' W 118°11'0 0.0
2017-Apr-16 19:29N 33°45' W 118°11'0 0.0
2017-Apr-16 18:58N 33°45' W 118°11'0 0.0
2017-Apr-16 18:25N 33°45' W 118°11'0 0.0
2017-Apr-16 17:58N 33°45' W 118°11'0 0.0
2017-Apr-16 17:28N 33°45' W 118°11'0 0.0
2017-Apr-16 16:58N 33°45' W 118°11'0 0.0
2017-Apr-16 16:30N 33°45' W 118°11'0 0.0
2017-Apr-16 16:00N 33°45' W 118°11'0 0.0
2017-Apr-16 15:30N 33°45' W 118°11'0 0.0
2017-Apr-16 15:00N 33°45' W 118°11'0 0.0
2017-Apr-16 14:29N 33°45' W 118°11'0 0.0
2017-Apr-16 13:29N 33°45' W 118°11'0 0.0
2017-Apr-16 12:59N 33°45' W 118°11'0 0.6
2017-Apr-16 12:30N 33°45' W 118°11'3 6.8
2017-Apr-16 12:00N 33°41' W 118°11'510.6
2017-Apr-16 11:30N 33°36' W 118°10'611.5
2017-Apr-16 11:00N 33°31' W 118°07'611.7
2017-Apr-16 10:30N 33°25' W 118°05'611.9
2017-Apr-16 10:00N 33°20' W 118°02'612.3
2017-Apr-16 09:30N 33°14' W 117°59'715.0
2017-Apr-16 09:01N 33°08' W 117°54'815.3
2017-Apr-16 08:31N 33°01' W 117°52'815.2
2017-Apr-16 08:01N 32°53' W 117°50'815.3
2017-Apr-16 07:30N 32°46' W 117°48'815.1
2017-Apr-16 07:00N 32°38' W 117°46'715.0
2017-Apr-16 06:31N 32°31' W 117°43'715.0
2017-Apr-16 06:01N 32°25' W 117°38'714.9
2017-Apr-16 05:31N 32°19' W 117°33'714.6
2017-Apr-16 05:00N 32°13' W 117°28'814.7
2017-Apr-16 04:29N 32°08' W 117°21'714.9
2017-Apr-16 04:00N 32°03' W 117°14'21 1.4
2017-Apr-15 12:11N 31°52' W 116°53'1 7.1
2017-Apr-15 12:00N 31°52' W 116°54'3 6.8
2017-Apr-15 11:30N 31°51' W 116°58'4 6.9
2017-Apr-15 10:56N 31°51' W 117°03'4 6.9
2017-Apr-15 10:25N 31°50' W 117°07'5 6.6
2017-Apr-15 09:40N 31°49' W 117°12'3 6.5
2017-Apr-15 09:08N 31°48' W 117°16'1 6.0
2017-Apr-15 09:00N 31°48' W 117°17'3 6.2
2017-Apr-15 08:30N 31°48' W 117°21'3 6.5
2017-Apr-15 07:58N 31°47' W 117°25'3 6.5
2017-Apr-15 07:29N 31°46' W 117°28'3 6.9
2017-Apr-15 07:00N 31°45' W 117°32'3 6.7
2017-Apr-15 06:30N 31°44' W 117°36'3 6.8
2017-Apr-15 06:00N 31°44' W 117°40'3 6.7
2017-Apr-15 05:30N 31°43' W 117°44'3 6.8
2017-Apr-15 05:00N 31°42' W 117°48'4 7.1
2017-Apr-15 04:30N 31°39' W 117°49'4 7.1
2017-Apr-15 04:00N 31°35' W 117°50'4 7.0
2017-Apr-15 03:30N 31°32' W 117°50'4 7.0
2017-Apr-15 03:00N 31°28' W 117°51'3 6.8
2017-Apr-15 02:30N 31°25' W 117°52'5 6.4
2017-Apr-15 01:40N 31°20' W 117°55'  
Track history (hours):
 
Tides and Currents Weather Stations Pressure Air Temp Water Temp Dewpoint Dewpoint Depression Visibility Wind Speed Wind Dir Waves Ship Positions

Imagination

Operator: Carnival Cruise Lines

Last reported at 2017-Apr-24 22:59 UTC. Time now 2017-Apr-24 23:06 UTC.
Position N 31°51' W 118°08'.

Type: Ship. MMSI: 309933000.

Date/timePositionNaut miles runAvg speedWind from/ knotsBaromVisibWave heightAir tempDewpointWater temp
2017-Apr-24 22:59N 31°51' W 118°08'4 7.3
2017-Apr-24 22:29N 31°47' W 118°10'4 7.8
2017-Apr-24 21:59N 31°44' W 118°12'4 7.1
2017-Apr-24 21:29N 31°40' W 118°11'5 6.9
2017-Apr-24 20:49N 31°37' W 118°07'3 6.5
2017-Apr-24 20:18N 31°36' W 118°03'4 7.3
2017-Apr-24 19:43N 31°37' W 117°59'3 7.2
2017-Apr-24 19:20N 31°38' W 117°55'2 7.3
2017-Apr-24 19:00N 31°38' W 117°53'4 7.1
2017-Apr-24 18:27N 31°39' W 117°48'3 7.5
2017-Apr-24 18:00N 31°41' W 117°45'4 7.7
2017-Apr-24 17:28N 31°45' W 117°42'1913.4
2017-Apr-24 16:04N 32°03' W 117°39'114.9
2017-Apr-24 16:00N 32°04' W 117°39'714.2
2017-Apr-24 15:31N 32°11' W 117°40'4 7.4
2017-Apr-24 15:00N 32°15' W 117°41'3 6.7
2017-Apr-24 14:31N 32°18' W 117°42'7 6.9
2017-Apr-24 13:30N 32°25' W 117°43'3 6.8
2017-Apr-24 13:01N 32°28' W 117°44'3 6.5
2017-Apr-24 12:30N 32°31' W 117°45'3 6.5
2017-Apr-24 12:00N 32°35' W 117°45'3 6.5
2017-Apr-24 11:31N 32°38' W 117°46'3 6.5
2017-Apr-24 11:01N 32°41' W 117°48'3 6.5
2017-Apr-24 10:30N 32°44' W 117°49'3 6.6
2017-Apr-24 10:01N 32°47' W 117°50'3 6.5
2017-Apr-24 09:30N 32°50' W 117°52'3 6.2
2017-Apr-24 09:01N 32°53' W 117°54'3 6.3
2017-Apr-24 08:30N 32°55' W 117°56'3 6.4
2017-Apr-24 08:01N 32°58' W 117°56'3 6.3
2017-Apr-24 07:30N 33°01' W 117°58'3 6.3
2017-Apr-24 07:00N 33°04' W 117°59'3 6.3
2017-Apr-24 06:30N 33°07' W 118°00'3 6.5
2017-Apr-24 06:01N 33°10' W 118°02'3 6.5
2017-Apr-24 05:30N 33°13' W 118°03'3 6.5
2017-Apr-24 05:00N 33°16' W 118°05'3 6.6
2017-Apr-24 04:30N 33°19' W 118°06'3 6.5
2017-Apr-24 04:01N 33°22' W 118°08'3 6.4
2017-Apr-24 03:30N 33°25' W 118°09'3 6.4
2017-Apr-24 03:00N 33°28' W 118°10'3 6.5
2017-Apr-24 02:30N 33°31' W 118°12'4 7.2
2017-Apr-24 02:00N 33°35' W 118°13'611.0
2017-Apr-24 01:30N 33°40' W 118°12'5 9.3
2017-Apr-24 01:00N 33°45' W 118°11'0 0.4
2017-Apr-24 00:28N 33°45' W 118°11'0 0.0
2017-Apr-23 23:58N 33°45' W 118°11'0 0.0
2017-Apr-23 23:19N 33°45' W 118°11'0 0.0
2017-Apr-23 22:58N 33°45' W 118°11'0 0.0
2017-Apr-23 22:30N 33°45' W 118°11'0 0.0
2017-Apr-23 21:57N 33°45' W 118°11'0 0.0
2017-Apr-23 21:30N 33°45' W 118°11'0 0.0
2017-Apr-23 20:54N 33°45' W 118°11'0 0.0
2017-Apr-23 20:30N 33°45' W 118°11'0 0.0
2017-Apr-23 19:59N 33°45' W 118°11'0 0.0
2017-Apr-23 19:29N 33°45' W 118°11'0 0.0
2017-Apr-23 18:56N 33°45' W 118°11'0 0.0
2017-Apr-23 18:29N 33°45' W 118°11'0 0.0
2017-Apr-23 17:59N 33°45' W 118°11'0 0.0
2017-Apr-23 17:28N 33°45' W 118°11'0 0.0
2017-Apr-23 16:58N 33°45' W 118°11'0 0.0
2017-Apr-23 16:28N 33°45' W 118°11'0 0.0
2017-Apr-23 15:55N 33°45' W 118°11'0 0.0
2017-Apr-23 15:30N 33°45' W 118°11'0 0.0
2017-Apr-23 15:00N 33°45' W 118°11'0 0.0
2017-Apr-23 14:00N 33°45' W 118°11'0 0.0
2017-Apr-23 13:30N 33°45' W 118°11'0 0.0
2017-Apr-23 12:56N 33°45' W 118°11'0 0.6
2017-Apr-23 12:30N 33°45' W 118°11'3 6.7
2017-Apr-23 12:00N 33°42' W 118°11'510.8
2017-Apr-23 11:30N 33°36' W 118°10'611.5
2017-Apr-23 11:00N 33°31' W 118°08'611.6
2017-Apr-23 10:30N 33°25' W 118°05'611.8
2017-Apr-23 10:01N 33°20' W 118°03'714.3
2017-Apr-23 09:30N 33°13' W 117°59'815.0
2017-Apr-23 09:00N 33°07' W 117°55'715.0
2017-Apr-23 08:30N 32°59' W 117°52'714.9
2017-Apr-23 08:00N 32°52' W 117°50'815.2
2017-Apr-23 07:31N 32°45' W 117°48'815.1
2017-Apr-23 07:00N 32°38' W 117°46'714.8
2017-Apr-23 06:30N 32°31' W 117°42'714.9
2017-Apr-23 06:00N 32°24' W 117°39'714.7
2017-Apr-23 05:30N 32°18' W 117°34'714.9
2017-Apr-23 05:00N 32°12' W 117°28'814.9
2017-Apr-23 04:30N 32°08' W 117°21'714.9
2017-Apr-23 04:00N 32°03' W 117°14'714.8
2017-Apr-23 03:30N 31°59' W 117°07'814.8
2017-Apr-23 03:00N 31°56' W 116°58'18 1.4
2017-Apr-22 13:56N 31°50' W 116°39'3 7.8
2017-Apr-22 13:30N 31°50' W 116°43'11 6.3
2017-Apr-22 11:45N 31°52' W 116°55'2 6.8
2017-Apr-22 11:30N 31°52' W 116°57'3 6.7
2017-Apr-22 11:00N 31°51' W 117°01'3 6.7
2017-Apr-22 10:30N 31°50' W 117°05'3 6.7
2017-Apr-22 10:00N 31°50' W 117°09'3 6.7
2017-Apr-22 09:30N 31°49' W 117°13'3 6.6
2017-Apr-22 09:00N 31°48' W 117°17'3 6.4
2017-Apr-22 08:30N 31°48' W 117°20'3 6.6
2017-Apr-22 08:00N 31°47' W 117°24'3 7.0
2017-Apr-22 07:30N 31°46' W 117°28'3 6.9
2017-Apr-22 07:00N 31°45' W 117°32'3 6.8
2017-Apr-22 06:30N 31°43' W 117°35'3 6.7
2017-Apr-22 06:00N 31°42' W 117°39'3 6.7
2017-Apr-22 05:29N 31°41' W 117°43'3 6.8
2017-Apr-22 05:00N 31°40' W 117°47'3 6.3
2017-Apr-22 04:30N 31°38' W 117°49'3 6.8
2017-Apr-22 04:00N 31°35' W 117°50'3 6.8
2017-Apr-22 03:30N 31°31' W 117°50'3 6.9
2017-Apr-22 03:00N 31°28' W 117°51'3 6.9
2017-Apr-22 02:30N 31°25' W 117°52'3 6.9
2017-Apr-22 02:00N 31°21' W 117°53'3 6.1
2017-Apr-22 01:30N 31°20' W 117°57'3 6.6
2017-Apr-22 01:00N 31°20' W 118°00'3 6.6
2017-Apr-22 00:30N 31°20' W 118°04'3 6.6
2017-Apr-22 00:00N 31°21' W 118°08'3 6.5
2017-Apr-21 23:30N 31°21' W 118°12'3 6.7
2017-Apr-21 23:00N 31°22' W 118°16'4 7.2
2017-Apr-21 22:30N 31°26' W 118°16'4 7.1
2017-Apr-21 22:00N 31°29' W 118°17'3 6.3
2017-Apr-21 21:30N 31°32' W 118°15'3 6.9
2017-Apr-21 21:00N 31°35' W 118°13'3 7.0
2017-Apr-21 20:30N 31°38' W 118°12'4 7.1
2017-Apr-21 20:00N 31°41' W 118°10'4 7.0
2017-Apr-21 19:30N 31°45' W 118°09'4 7.1
2017-Apr-21 19:00N 31°48' W 118°07'4 7.1
2017-Apr-21 18:30N 31°51' W 118°06'4 7.1
2017-Apr-21 18:00N 31°55' W 118°05'4 7.1
2017-Apr-21 17:30N 31°58' W 118°03'4 7.1
2017-Apr-21 17:00N 32°01' W 118°01'4 7.1
2017-Apr-21 16:30N 32°05' W 117°60'4 7.2
2017-Apr-21 16:00N 32°08' W 117°59'4 7.1
2017-Apr-21 15:30N 32°11' W 117°57'3 6.7
2017-Apr-21 15:00N 32°14' W 117°55'3 6.7
2017-Apr-21 14:30N 32°18' W 117°54'7 6.8
2017-Apr-21 13:30N 32°24' W 117°51'3 6.6
2017-Apr-21 13:00N 32°27' W 117°50'3 6.7
2017-Apr-21 12:30N 32°30' W 117°48'3 6.8
2017-Apr-21 12:00N 32°33' W 117°47'3 6.8
2017-Apr-21 11:30N 32°37' W 117°46'3 7.0
2017-Apr-21 11:00N 32°40' W 117°46'4 7.0
2017-Apr-21 10:30N 32°44' W 117°47'3 6.7
2017-Apr-21 10:00N 32°47' W 117°48'3 6.9
2017-Apr-21 09:30N 32°50' W 117°49'3 6.0
2017-Apr-21 09:00N 32°53' W 117°50'3 6.0
2017-Apr-21 08:30N 32°56' W 117°51'3 6.5
2017-Apr-21 08:00N 32°59' W 117°53'3 6.6
2017-Apr-21 07:30N 33°01' W 117°55'3 6.6
2017-Apr-21 07:00N 33°04' W 117°57'3 6.7
2017-Apr-21 06:30N 33°07' W 117°59'3 6.7
2017-Apr-21 06:00N 33°10' W 118°00'3 6.7
2017-Apr-21 05:30N 33°13' W 118°02'3 6.4
2017-Apr-21 05:00N 33°16' W 118°04'3 6.3
2017-Apr-21 04:30N 33°19' W 118°06'3 6.3
2017-Apr-21 04:00N 33°22' W 118°07'3 6.3
2017-Apr-21 03:30N 33°25' W 118°09'3 6.5
2017-Apr-21 03:00N 33°28' W 118°10'3 6.5
2017-Apr-21 02:30N 33°31' W 118°11'3 6.8
2017-Apr-21 02:00N 33°34' W 118°13'510.7
2017-Apr-21 01:30N 33°39' W 118°12'510.2
2017-Apr-21 01:00N 33°44' W 118°11'1 1.6
2017-Apr-21 00:30N 33°45' W 118°11'0 0.0
2017-Apr-21 00:00N 33°45' W 118°11'0 0.0
2017-Apr-20 23:30N 33°45' W 118°11'0 0.0
2017-Apr-20 22:59N 33°45' W 118°11'0 0.0
2017-Apr-20 22:29N 33°45' W 118°11'0 0.0
2017-Apr-20 21:59N 33°45' W 118°11'0 0.0
2017-Apr-20 21:29N 33°45' W 118°11'0 0.0
2017-Apr-20 20:59N 33°45' W 118°11'0 0.0
2017-Apr-20 20:25N 33°45' W 118°11'0 0.0
2017-Apr-20 19:58N 33°45' W 118°11'0 0.0
2017-Apr-20 19:28N 33°45' W 118°11'0 0.0
2017-Apr-20 18:58N 33°45' W 118°11'0 0.0
2017-Apr-20 18:30N 33°45' W 118°11'0 0.0
2017-Apr-20 18:00N 33°45' W 118°11'0 0.0
2017-Apr-20 17:30N 33°45' W 118°11'0 0.0
2017-Apr-20 17:00N 33°45' W 118°11'0 0.0
2017-Apr-20 16:30N 33°45' W 118°11'0 0.0
2017-Apr-20 15:35N 33°45' W 118°11'0 0.0
2017-Apr-20 15:29N 33°45' W 118°11'0 0.0
2017-Apr-20 14:59N 33°45' W 118°11'0 0.0
2017-Apr-20 13:58N 33°45' W 118°11'0 0.0
2017-Apr-20 13:28N 33°45' W 118°11'0 0.0
2017-Apr-20 12:50N 33°45' W 118°11'0 0.7
2017-Apr-20 12:26N 33°45' W 118°11'3 7.3
2017-Apr-20 12:00N 33°42' W 118°11'611.0
2017-Apr-20 11:30N 33°36' W 118°10'611.6
2017-Apr-20 11:00N 33°31' W 118°08'611.4
2017-Apr-20 10:30N 33°25' W 118°05'611.9
2017-Apr-20 10:00N 33°20' W 118°02'815.5
2017-Apr-20 09:30N 33°13' W 117°59'815.2
2017-Apr-20 09:00N 33°06' W 117°56'815.2
2017-Apr-20 08:30N 32°59' W 117°52'815.2
2017-Apr-20 08:01N 32°51' W 117°50'815.2
2017-Apr-20 07:30N 32°44' W 117°47'714.8
2017-Apr-20 07:00N 32°37' W 117°45'714.5
2017-Apr-20 06:30N 32°30' W 117°42'714.6
2017-Apr-20 06:00N 32°24' W 117°38'714.5
2017-Apr-20 05:30N 32°17' W 117°34'714.4
2017-Apr-20 05:00N 32°12' W 117°28'714.8
2017-Apr-20 04:30N 32°08' W 117°21'714.6
2017-Apr-20 04:00N 32°03' W 117°14'714.7
2017-Apr-20 03:30N 31°59' W 117°07'2214.2
2017-Apr-20 01:59N 31°50' W 116°44'31 1.9
2017-Apr-19 09:20N 32°04' W 117°17'3 8.1
2017-Apr-19 09:00N 32°05' W 117°19'4 8.2
2017-Apr-19 08:30N 32°08' W 117°23'4 7.9
2017-Apr-19 08:00N 32°11' W 117°27'4 8.1
2017-Apr-19 07:30N 32°13' W 117°30'4 7.9
2017-Apr-19 07:00N 32°16' W 117°33'4 8.2
2017-Apr-19 06:30N 32°20' W 117°36'4 8.2
2017-Apr-19 06:00N 32°23' W 117°38'510.0
2017-Apr-19 05:30N 32°27' W 117°41'611.1
2017-Apr-19 05:00N 32°32' W 117°44'611.0
2017-Apr-19 04:30N 32°37' W 117°48'510.8
2017-Apr-19 04:00N 32°42' W 117°51'511.0
2017-Apr-19 03:30N 32°47' W 117°54'511.0
2017-Apr-19 03:00N 32°52' W 117°57'510.9
2017-Apr-19 02:30N 32°56' W 118°00'511.0
2017-Apr-19 02:00N 33°01' W 118°03'611.1
2017-Apr-19 01:30N 33°06' W 118°06'511.0
2017-Apr-19 01:00N 33°11' W 118°09'510.9
2017-Apr-19 00:30N 33°16' W 118°12'510.1
2017-Apr-19 00:00N 33°19' W 118°17'3 5.4
2017-Apr-18 23:31N 33°21' W 118°19'0 0.1
2017-Apr-18 23:00N 33°21' W 118°19'0 0.1
2017-Apr-18 22:30N 33°21' W 118°19'0 0.1
2017-Apr-18 22:00N 33°21' W 118°19'0 0.0
2017-Apr-18 21:30N 33°21' W 118°19'0 0.0
2017-Apr-18 20:59N 33°21' W 118°19'0 0.0
2017-Apr-18 20:29N 33°21' W 118°19'0 0.0
2017-Apr-18 19:59N 33°21' W 118°19'0 0.0
2017-Apr-18 19:29N 33°21' W 118°19'0 0.0
2017-Apr-18 18:59N 33°21' W 118°19'0 0.0
2017-Apr-18 18:28N 33°21' W 118°19'0 0.0
2017-Apr-18 17:58N 33°21' W 118°19'0 0.0
2017-Apr-18 17:28N 33°21' W 118°19'0 0.0
2017-Apr-18 16:58N 33°21' W 118°19'0 0.1
2017-Apr-18 16:30N 33°21' W 118°19'0 0.0
2017-Apr-18 16:00N 33°21' W 118°19'0 0.0
2017-Apr-18 15:30N 33°21' W 118°19'0 0.0
2017-Apr-18 15:00N 33°21' W 118°19'0 0.1
2017-Apr-18 14:00N 33°21' W 118°19'3 6.3
2017-Apr-18 13:30N 33°18' W 118°17'3 6.7
2017-Apr-18 13:01N 33°15' W 118°17'3 6.7
2017-Apr-18 12:30N 33°12' W 118°17'3 6.9
2017-Apr-18 12:00N 33°08' W 118°17'4 7.0
2017-Apr-18 11:30N 33°05' W 118°16'3 6.6
2017-Apr-18 11:00N 33°02' W 118°13'3 6.6
2017-Apr-18 10:30N 33°00' W 118°10'3 6.5
2017-Apr-18 10:00N 32°58' W 118°07'3 6.5
2017-Apr-18 09:30N 32°56' W 118°04'3 6.4
2017-Apr-18 09:00N 32°54' W 118°02'3 6.3
2017-Apr-18 08:30N 32°51' W 117°60'3 6.6
2017-Apr-18 08:00N 32°48' W 117°58'4 8.4
2017-Apr-18 07:30N 32°44' W 117°56'4 8.8
2017-Apr-18 07:00N 32°40' W 117°53'4 7.2
2017-Apr-18 06:30N 32°37' W 117°51'3 6.7
2017-Apr-18 06:00N 32°34' W 117°51'3 6.9
2017-Apr-18 05:30N 32°30' W 117°52'4 7.1
2017-Apr-18 05:00N 32°27' W 117°53'4 7.1
2017-Apr-18 04:30N 32°24' W 117°55'4 7.3
2017-Apr-18 04:00N 32°20' W 117°56'4 7.1
2017-Apr-18 03:30N 32°17' W 117°57'4 7.3
2017-Apr-18 03:00N 32°13' W 117°58'4 7.2
2017-Apr-18 02:30N 32°10' W 117°59'3 7.0
2017-Apr-18 02:00N 32°06' W 118°01'4 7.1
2017-Apr-18 01:26N 32°03' W 118°02'3 6.8
2017-Apr-18 00:59N 31°60' W 118°03'3 6.7
2017-Apr-18 00:30N 31°57' W 118°04'4 7.0
2017-Apr-18 00:00N 31°53' W 118°06'4 7.1
2017-Apr-17 23:30N 31°50' W 118°08'4 7.0
2017-Apr-17 23:00N 31°47' W 118°10'4 7.0
2017-Apr-17 22:25N 31°43' W 118°12'3 6.8
2017-Apr-17 22:00N 31°41' W 118°12'3 6.9
2017-Apr-17 21:30N 31°37' W 118°12'3 6.5
2017-Apr-17 21:00N 31°35' W 118°09'3 6.8
2017-Apr-17 20:30N 31°35' W 118°05'4 7.0
2017-Apr-17 20:00N 31°36' W 118°01'4 7.1
2017-Apr-17 19:30N 31°37' W 117°57'3 7.0
2017-Apr-17 19:00N 31°38' W 117°53'3 7.0
2017-Apr-17 18:30N 31°39' W 117°49'3 7.0
2017-Apr-17 18:00N 31°41' W 117°46'4 7.1
2017-Apr-17 17:30N 31°43' W 117°43'4 7.6
2017-Apr-17 17:00N 31°46' W 117°40'713.9
2017-Apr-17 16:30N 31°53' W 117°37'815.7
2017-Apr-17 16:00N 32°01' W 117°39'815.3
2017-Apr-17 15:30N 32°08' W 117°40'611.4
2017-Apr-17 15:01N 32°14' W 117°41'5290.0
2017-Apr-17 15:00N 32°12' W 117°36'1110.7 340 / 101021.210.8 15.0 9.717.0
2017-Apr-17 14:00N 32°21' W 117°43'4 7.2
2017-Apr-17 13:30N 32°24' W 117°43'4 7.1
2017-Apr-17 13:01N 32°28' W 117°44'4 7.2
2017-Apr-17 12:30N 32°31' W 117°45'4 7.1
2017-Apr-17 12:00N 32°35' W 117°45'3 6.6
2017-Apr-17 11:30N 32°38' W 117°46'3 6.4
2017-Apr-17 11:00N 32°41' W 117°48'3 6.5
2017-Apr-17 10:30N 32°44' W 117°49'3 6.5
2017-Apr-17 10:00N 32°47' W 117°51'3 6.4
2017-Apr-17 09:30N 32°50' W 117°52'3 6.3
2017-Apr-17 09:00N 32°53' W 117°53'3 6.4
2017-Apr-17 08:30N 32°56' W 117°55'3 6.6
2017-Apr-17 08:00N 32°59' W 117°56'3 6.7
2017-Apr-17 07:30N 33°02' W 117°58'3 6.5
2017-Apr-17 07:00N 33°05' W 117°59'3 6.4
2017-Apr-17 06:30N 33°08' W 118°01'3 6.4
2017-Apr-17 06:00N 33°11' W 118°02'3 6.6
2017-Apr-17 05:30N 33°14' W 118°04'3 6.7
2017-Apr-17 05:00N 33°17' W 118°05'3 6.6
2017-Apr-17 04:30N 33°20' W 118°07'3 6.3
2017-Apr-17 04:00N 33°23' W 118°08'3 6.6
2017-Apr-17 03:30N 33°26' W 118°09'3 6.7
2017-Apr-17 03:00N 33°29' W 118°11'4 7.1
2017-Apr-17 02:30N 33°33' W 118°12'5 9.5
2017-Apr-17 02:00N 33°38' W 118°12'510.4
2017-Apr-17 01:30N 33°43' W 118°11'2 4.4
2017-Apr-17 00:58N 33°45' W 118°11'0 0.0
2017-Apr-17 00:28N 33°45' W 118°11'0 0.0
2017-Apr-16 23:58N 33°45' W 118°11'0 0.0
2017-Apr-16 23:30N 33°45' W 118°11'0 0.0
2017-Apr-16 23:00N 33°45' W 118°11'0 0.0
2017-Apr-16 22:30N 33°45' W 118°11'0 0.0
2017-Apr-16 22:00N 33°45' W 118°11'0 0.0
2017-Apr-16 21:30N 33°45' W 118°11'0 0.0
2017-Apr-16 20:56N 33°45' W 118°11'0 0.0
2017-Apr-16 20:26N 33°45' W 118°11'0 0.0
2017-Apr-16 19:59N 33°45' W 118°11'0 0.0
2017-Apr-16 19:29N 33°45' W 118°11'0 0.0
2017-Apr-16 18:58N 33°45' W 118°11'0 0.0
2017-Apr-16 18:25N 33°45' W 118°11'0 0.0
2017-Apr-16 17:58N 33°45' W 118°11'0 0.0
2017-Apr-16 17:28N 33°45' W 118°11'0 0.0
2017-Apr-16 16:58N 33°45' W 118°11'0 0.0
2017-Apr-16 16:30N 33°45' W 118°11'0 0.0
2017-Apr-16 16:00N 33°45' W 118°11'0 0.0
2017-Apr-16 15:30N 33°45' W 118°11'0 0.0
2017-Apr-16 15:00N 33°45' W 118°11'0 0.0
2017-Apr-16 14:29N 33°45' W 118°11'0 0.0
2017-Apr-16 13:29N 33°45' W 118°11'0 0.0
2017-Apr-16 12:59N 33°45' W 118°11'0 0.6
2017-Apr-16 12:30N 33°45' W 118°11'3 6.8
2017-Apr-16 12:00N 33°41' W 118°11'510.6
2017-Apr-16 11:30N 33°36' W 118°10'611.5
2017-Apr-16 11:00N 33°31' W 118°07'611.7
2017-Apr-16 10:30N 33°25' W 118°05'611.9
2017-Apr-16 10:00N 33°20' W 118°02'612.3
2017-Apr-16 09:30N 33°14' W 117°59'715.0
2017-Apr-16 09:01N 33°08' W 117°54'815.3
2017-Apr-16 08:31N 33°01' W 117°52'815.2
2017-Apr-16 08:01N 32°53' W 117°50'815.3
2017-Apr-16 07:30N 32°46' W 117°48'815.1
2017-Apr-16 07:00N 32°38' W 117°46'715.0
2017-Apr-16 06:31N 32°31' W 117°43'715.0
2017-Apr-16 06:01N 32°25' W 117°38'714.9
2017-Apr-16 05:31N 32°19' W 117°33'714.6
2017-Apr-16 05:00N 32°13' W 117°28'814.7
2017-Apr-16 04:29N 32°08' W 117°21'714.9
2017-Apr-16 04:00N 32°03' W 117°14'21 1.4
2017-Apr-15 12:11N 31°52' W 116°53'1 7.1
2017-Apr-15 12:00N 31°52' W 116°54'3 6.8
2017-Apr-15 11:30N 31°51' W 116°58'4 6.9
2017-Apr-15 10:56N 31°51' W 117°03'4 6.9
2017-Apr-15 10:25N 31°50' W 117°07'5 6.6
2017-Apr-15 09:40N 31°49' W 117°12'3 6.5
2017-Apr-15 09:08N 31°48' W 117°16'1 6.0
2017-Apr-15 09:00N 31°48' W 117°17'3 6.2
2017-Apr-15 08:30N 31°48' W 117°21'3 6.5
2017-Apr-15 07:58N 31°47' W 117°25'3 6.5
2017-Apr-15 07:29N 31°46' W 117°28'3 6.9
2017-Apr-15 07:00N 31°45' W 117°32'3 6.7
2017-Apr-15 06:30N 31°44' W 117°36'3 6.8
2017-Apr-15 06:00N 31°44' W 117°40'3 6.7
2017-Apr-15 05:30N 31°43' W 117°44'3 6.8
2017-Apr-15 05:00N 31°42' W 117°48'4 7.1
2017-Apr-15 04:30N 31°39' W 117°49'4 7.1
2017-Apr-15 04:00N 31°35' W 117°50'4 7.0
2017-Apr-15 03:30N 31°32' W 117°50'4 7.0
2017-Apr-15 03:00N 31°28' W 117°51'3 6.8
2017-Apr-15 02:30N 31°25' W 117°52'5 6.4
2017-Apr-15 01:40N 31°20' W 117°55'  

Dump ship's entire track history